Indianapolis, Indiana
Traffic Map
Current Weather Conditions
Indianapolis, Indiana
Few Clouds
Few Clouds
-4°
Feels Like: -9°
Wind Chill: -9° Ceiling: Unl
Heat Index: -4° Visibility: 10mi
Dew Point: -11° Wind: 9mph
Humidity: 58% Direction: 320° (NW)
Pressure: 30.17in Gusts: 0mph
Raw Report DataKIND 272254Z 32008KT 10SM FEW050 FEW250 M04/M11 A3017 RMK AO2 SLP226 T10391111
Traffic Incident Summary
Active as of:
Severity:
Category:
InformationThere was an issue retrieving the traffic information for this location. Please try a different location or try again shortly.
Advertisements
Track Severe Weather on mobile